Time;durP1;ratioP1;P1;durP2;ratioP2;P2;SDS_P1;SDS_P2;PMS_P1;PMS_P2;Temp;Humidity;BMP_temperature;BMP_pressure;BME280_temperature;BME280_humidity;BME280_pressure;Samples;Min_cycle;Max_cycle;Signal;HPM_P1;HPM_P2
2023/08/27 00:00:47;;;;;;;0.10;0.10;;;;;;;16.65;100.00;98606.91;5094290;28;20209;-56
2023/08/27 00:03:34;;;;;;;0.10;0.10;;;;;;;16.68;100.00;98600.41;5095554;28;20194;-56
2023/08/27 00:06:22;;;;;;;0.10;0.10;;;;;;;16.63;100.00;98608.91;5095556;28;20187;-56
2023/08/27 00:09:10;;;;;;;0.00;0.00;;;;;;;16.65;100.00;98612.25;5095404;28;20194;-57
2023/08/27 00:11:57;;;;;;;0.00;0.00;;;;;;;16.63;100.00;98613.41;5095234;28;20195;-54
2023/08/27 00:14:45;;;;;;;0.10;0.10;;;;;;;16.59;100.00;98616.34;5093555;28;20318;-56
2023/08/27 00:17:31;;;;;;;0.10;0.10;;;;;;;16.71;100.00;98601.00;5095288;28;20191;-54
2023/08/27 00:20:18;;;;;;;0.10;0.10;;;;;;;16.96;100.00;98558.44;5095132;28;20262;-55
2023/08/27 00:23:08;;;;;;;0.10;0.10;;;;;;;16.93;100.00;98558.75;5095112;28;20182;-54
2023/08/27 00:25:55;;;;;;;0.10;0.10;;;;;;;16.74;100.00;98557.06;5095199;28;20203;-55
2023/08/27 00:28:42;;;;;;;0.10;0.10;;;;;;;16.75;100.00;98556.06;5093665;28;20538;-56
2023/08/27 00:31:28;;;;;;;0.10;0.10;;;;;;;16.75;100.00;98550.72;5094160;28;20195;-56
2023/08/27 00:34:19;;;;;;;0.10;0.10;;;;;;;16.79;100.00;98544.06;5094221;28;20215;-56
2023/08/27 00:37:07;;;;;;;0.10;0.10;;;;;;;16.79;100.00;98568.13;5094507;28;20227;-56
2023/08/27 00:39:55;;;;;;;0.10;0.10;;;;;;;16.64;100.00;98589.19;5093826;28;20777;-56
2023/08/27 00:42:42;;;;;;;0.10;0.10;;;;;;;16.76;100.00;98584.47;5093922;28;20265;-56
2023/08/27 00:45:30;;;;;;;0.03;0.03;;;;;;;16.76;100.00;98569.28;5092216;28;20203;-55
2023/08/27 00:48:17;;;;;;;0.10;0.10;;;;;;;16.76;100.00;98550.56;5094617;28;20202;-55
2023/08/27 00:51:05;;;;;;;0.10;0.10;;;;;;;16.83;100.00;98537.41;5093645;28;20265;-55
2023/08/27 00:53:52;;;;;;;0.10;0.10;;;;;;;16.72;100.00;98559.06;5094294;28;20227;-55
2023/08/27 00:56:43;;;;;;;0.00;0.00;;;;;;;16.67;100.00;98550.59;5093662;28;20203;-55
2023/08/27 00:59:30;;;;;;;0.10;0.10;;;;;;;16.60;100.00;98548.53;5092196;28;20198;-55
2023/08/27 01:02:17;;;;;;;0.00;0.00;;;;;;;16.67;100.00;98546.09;5093246;28;20222;-56
2023/08/27 01:05:05;;;;;;;0.10;0.10;;;;;;;16.60;100.00;98535.19;5093360;28;20237;-55
2023/08/27 01:08:07;;;;;;;0.00;0.00;;;;;;;16.68;100.00;98547.78;5094295;28;20194;-55
2023/08/27 01:11:00;;;;;;;0.07;0.07;;;;;;;16.55;100.00;98566.00;5093276;28;20198;-56
2023/08/27 01:13:53;;;;;;;0.10;0.10;;;;;;;16.42;100.00;98562.88;5091643;28;20215;-55
2023/08/27 01:16:42;;;;;;;0.10;0.10;;;;;;;16.35;100.00;98578.66;5093751;28;20217;-56
2023/08/27 01:19:30;;;;;;;0.10;0.10;;;;;;;16.31;100.00;98599.50;5093112;28;20300;-55
2023/08/27 01:22:18;;;;;;;0.10;0.10;;;;;;;16.25;100.00;98597.41;5092979;28;20215;-56
2023/08/27 01:25:07;;;;;;;0.10;0.10;;;;;;;16.37;100.00;98591.88;5093695;28;20215;-56
2023/08/27 01:28:00;;;;;;;0.10;0.10;;;;;;;16.55;100.00;98585.56;5092827;28;20678;-56
2023/08/27 01:30:55;;;;;;;0.10;0.10;;;;;;;16.59;100.00;98586.09;5092510;28;20550;-56
2023/08/27 01:33:45;;;;;;;0.10;0.10;;;;;;;16.58;100.00;98581.75;5092711;28;20218;-56
2023/08/27 01:36:34;;;;;;;0.00;0.00;;;;;;;16.57;100.00;98572.88;5093726;28;20195;-57
2023/08/27 01:39:23;;;;;;;0.10;0.10;;;;;;;16.70;100.00;98577.94;5093738;28;20199;-54
2023/08/27 01:42:13;;;;;;;0.10;0.10;;;;;;;16.58;100.00;98569.22;5092662;28;20195;-56
2023/08/27 01:45:01;;;;;;;0.10;0.10;;;;;;;16.53;100.00;98576.88;5091319;28;20190;-55
2023/08/27 01:47:47;;;;;;;0.10;0.10;;;;;;;16.44;100.00;98566.22;5091778;28;20540;-56
2023/08/27 01:50:34;;;;;;;0.10;0.10;;;;;;;16.54;100.00;98562.50;5092428;28;20194;-56
2023/08/27 01:53:21;;;;;;;0.10;0.10;;;;;;;16.48;100.00;98554.25;5093366;28;20199;-56
2023/08/27 01:56:10;;;;;;;0.10;0.10;;;;;;;16.78;100.00;98537.03;5093387;28;20194;-55
2023/08/27 01:58:56;;;;;;;0.10;0.10;;;;;;;16.66;100.00;98538.22;5090967;28;20222;-56
2023/08/27 02:01:44;;;;;;;0.10;0.10;;;;;;;16.69;100.00;98546.78;5092240;28;20198;-56
2023/08/27 02:04:30;;;;;;;0.10;0.10;;;;;;;16.71;100.00;98549.34;5092206;28;20202;-56
2023/08/27 02:07:19;;;;;;;0.10;0.10;;;;;;;16.66;100.00;98546.25;5092117;28;20245;-55
2023/08/27 02:10:06;;;;;;;0.10;0.10;;;;;;;16.41;100.00;98551.34;5092091;28;20215;-56
2023/08/27 02:12:54;;;;;;;0.10;0.10;;;;;;;16.37;100.00;98549.94;5092943;28;20241;-56
2023/08/27 02:15:43;;;;;;;0.10;0.10;;;;;;;16.39;100.00;98542.59;5091552;28;20225;-56
2023/08/27 02:18:29;;;;;;;0.10;0.10;;;;;;;16.46;100.00;98533.00;5093026;28;20191;-55
2023/08/27 02:21:17;;;;;;;0.10;0.10;;;;;;;16.45;100.00;98546.53;5091915;28;20195;-56
2023/08/27 02:24:04;;;;;;;0.10;0.10;;;;;;;16.44;100.00;98540.34;5091953;28;20190;-56
2023/08/27 02:26:51;;;;;;;0.10;0.10;;;;;;;16.56;100.00;98520.41;5091902;28;20241;-56
2023/08/27 02:29:39;;;;;;;0.10;0.10;;;;;;;16.55;100.00;98516.06;5091498;28;20202;-56
2023/08/27 02:32:26;;;;;;;0.10;0.10;;;;;;;16.48;100.00;98511.47;5091940;28;20587;-56
2023/08/27 02:35:13;;;;;;;0.10;0.10;;;;;;;16.39;100.00;98521.22;5091689;28;20215;-56
2023/08/27 02:38:00;;;;;;;0.10;0.10;;;;;;;16.45;100.00;98538.50;5091452;28;20239;-56
2023/08/27 02:40:47;;;;;;;0.10;0.10;;;;;;;16.27;100.00;98525.94;5091785;28;20190;-56
2023/08/27 02:43:33;;;;;;;0.10;0.10;;;;;;;16.28;100.00;98522.28;5090969;28;20194;-56
2023/08/27 02:46:22;;;;;;;0.10;0.10;;;;;;;16.43;100.00;98521.78;5092579;28;20213;-55
2023/08/27 02:49:09;;;;;;;0.10;0.10;;;;;;;16.26;100.00;98510.91;5092624;28;20207;-56
2023/08/27 02:51:56;;;;;;;0.10;0.10;;;;;;;16.26;100.00;98513.56;5092730;28;20226;-56
2023/08/27 02:54:43;;;;;;;0.10;0.10;;;;;;;16.33;100.00;98511.16;5092442;28;20222;-56
2023/08/27 02:57:30;;;;;;;0.10;0.10;;;;;;;16.32;100.00;98501.47;5091999;28;20191;-56
2023/08/27 03:00:17;;;;;;;0.10;0.10;;;;;;;16.58;100.00;98501.53;5094310;28;20667;-56
2023/08/27 03:03:05;;;;;;;0.10;0.10;;;;;;;16.56;100.00;98484.81;5096550;28;20191;-56
2023/08/27 03:05:52;;;;;;;0.10;0.10;;;;;;;16.46;100.00;98492.06;5095658;28;20317;-55
2023/08/27 03:08:39;;;;;;;0.10;0.10;;;;;;;16.35;100.00;98495.81;5095687;28;20202;-55
2023/08/27 03:11:25;;;;;;;0.10;0.10;;;;;;;16.38;100.00;98526.72;5095349;28;20202;-56
2023/08/27 03:14:12;;;;;;;0.10;0.10;;;;;;;16.34;100.00;98536.88;5094024;28;20237;-56
2023/08/27 03:16:59;;;;;;;0.10;0.10;;;;;;;16.14;100.00;98524.63;5095445;28;20257;-56
2023/08/27 03:19:48;;;;;;;0.10;0.10;;;;;;;16.10;100.00;98532.09;5095181;28;20207;-56
2023/08/27 03:22:34;;;;;;;0.10;0.10;;;;;;;16.02;100.00;98521.31;5096316;28;20198;-56
2023/08/27 03:25:21;;;;;;;0.10;0.10;;;;;;;15.98;100.00;98528.78;5096364;28;20221;-56
2023/08/27 03:28:08;;;;;;;0.07;0.07;;;;;;;16.12;100.00;98534.63;5096031;28;20742;-55
2023/08/27 03:30:55;;;;;;;0.10;0.10;;;;;;;16.12;100.00;98535.47;5094364;28;20203;-55
2023/08/27 03:33:42;;;;;;;0.10;0.10;;;;;;;16.23;100.00;98548.63;5096063;28;20668;-56
2023/08/27 03:36:30;;;;;;;0.10;0.10;;;;;;;16.31;100.00;98537.19;5094440;28;20224;-56
2023/08/27 03:39:17;;;;;;;0.10;0.10;;;;;;;16.01;100.00;98535.63;5094923;28;20191;-55
2023/08/27 03:42:05;;;;;;;0.10;0.10;;;;;;;15.97;100.00;98535.09;5095025;28;20198;-56
2023/08/27 03:44:52;;;;;;;0.10;0.10;;;;;;;16.10;100.00;98533.91;5093393;28;20186;-56
2023/08/27 03:47:41;;;;;;;0.10;0.10;;;;;;;16.19;100.00;98533.03;5094535;28;20202;-56
2023/08/27 03:50:28;;;;;;;0.10;0.10;;;;;;;16.23;100.00;98518.41;5094737;28;20194;-56
2023/08/27 03:53:16;;;;;;;0.10;0.10;;;;;;;16.30;100.00;98520.28;5094477;28;20206;-56
2023/08/27 03:56:04;;;;;;;0.10;0.10;;;;;;;16.27;100.00;98522.44;5095378;28;20235;-56
2023/08/27 03:58:51;;;;;;;0.10;0.10;;;;;;;16.19;100.00;98512.50;5093383;28;20272;-56
2023/08/27 04:01:38;;;;;;;0.10;0.10;;;;;;;16.01;100.00;98525.78;5094472;28;20206;-55
2023/08/27 04:04:25;;;;;;;0.10;0.10;;;;;;;15.90;100.00;98517.97;5095482;28;20231;-56
2023/08/27 04:07:12;;;;;;;0.10;0.10;;;;;;;16.11;100.00;98515.06;5094404;28;20195;-56
2023/08/27 04:10:01;;;;;;;0.10;0.10;;;;;;;15.99;100.00;98511.75;5093370;28;20249;-56
2023/08/27 04:12:48;;;;;;;0.10;0.10;;;;;;;16.07;100.00;98510.19;5095302;28;20274;-56
2023/08/27 04:15:35;;;;;;;0.10;0.10;;;;;;;15.94;100.00;98515.88;5092675;28;20218;-56
2023/08/27 04:18:22;;;;;;;0.10;0.10;;;;;;;15.88;100.00;98509.28;5093973;28;20233;-56
2023/08/27 04:21:09;;;;;;;0.10;0.10;;;;;;;16.02;100.00;98521.31;5094242;28;20368;-56
2023/08/27 04:23:56;;;;;;;0.10;0.10;;;;;;;16.16;100.00;98512.78;5094244;28;20190;-56
2023/08/27 04:26:44;;;;;;;0.10;0.10;;;;;;;16.23;100.00;98510.38;5093908;28;20195;-55
2023/08/27 04:29:31;;;;;;;0.10;0.10;;;;;;;16.03;100.00;98510.47;5093756;28;20373;-56
2023/08/27 04:32:18;;;;;;;0.10;0.10;;;;;;;15.75;100.00;98516.78;5094906;28;20195;-55
2023/08/27 04:35:06;;;;;;;0.10;0.10;;;;;;;15.86;100.00;98507.75;5093724;28;20340;-56
2023/08/27 04:37:53;;;;;;;0.10;0.10;;;;;;;15.84;100.00;98501.72;5093638;28;20225;-55
2023/08/27 04:40:39;;;;;;;0.10;0.10;;;;;;;15.79;100.00;98502.16;5094711;28;20313;-56
2023/08/27 04:43:28;;;;;;;0.10;0.10;;;;;;;15.79;100.00;98502.16;5093417;28;20321;-56
2023/08/27 04:46:14;;;;;;;0.10;0.10;;;;;;;15.74;100.00;98501.75;5093786;28;20256;-56
2023/08/27 04:49:01;;;;;;;0.10;0.10;;;;;;;15.80;100.00;98497.66;5093688;28;20195;-56
2023/08/27 04:51:48;;;;;;;0.10;0.10;;;;;;;16.03;100.00;98501.63;5094556;28;20221;-55
2023/08/27 04:54:37;;;;;;;0.10;0.10;;;;;;;15.90;100.00;98490.44;5094589;28;20233;-56
2023/08/27 04:57:23;;;;;;;0.10;0.10;;;;;;;15.85;100.00;98488.22;5093600;28;20659;-56
2023/08/27 05:00:16;;;;;;;0.10;0.10;;;;;;;15.74;100.00;98496.44;5092040;28;20321;-56
2023/08/27 05:03:04;;;;;;;0.10;0.10;;;;;;;15.72;100.00;98495.72;5094413;28;20218;-56
2023/08/27 05:05:54;;;;;;;0.00;0.00;;;;;;;15.73;100.00;98489.41;5093395;28;20229;-56
2023/08/27 05:08:42;;;;;;;0.10;0.10;;;;;;;15.86;100.00;98491.72;5094299;28;20311;-56
2023/08/27 05:11:29;;;;;;;0.10;0.10;;;;;;;15.93;100.00;98499.00;5093253;28;20195;-56
2023/08/27 05:14:16;;;;;;;0.10;0.10;;;;;;;16.07;100.00;98492.31;5091816;28;20198;-56
2023/08/27 05:17:05;;;;;;;0.10;0.10;;;;;;;15.97;100.00;98494.19;5093767;28;20222;-56
2023/08/27 05:19:53;;;;;;;0.10;0.10;;;;;;;15.89;100.00;98497.59;5093118;28;20278;-56
2023/08/27 05:22:40;;;;;;;0.10;0.10;;;;;;;15.82;100.00;98493.84;5092860;28;20198;-56
2023/08/27 05:25:27;;;;;;;0.10;0.10;;;;;;;15.86;100.00;98486.38;5093907;28;20225;-56
2023/08/27 05:28:14;;;;;;;0.10;0.10;;;;;;;15.99;100.00;98485.03;5092803;28;20198;-56
2023/08/27 05:31:03;;;;;;;0.00;0.00;;;;;;;16.00;100.00;98499.22;5093738;28;20594;-55
2023/08/27 05:33:52;;;;;;;0.03;0.03;;;;;;;15.95;100.00;98504.19;5092733;28;20199;-56
2023/08/27 05:36:39;;;;;;;0.00;0.00;;;;;;;16.09;100.00;98502.84;5091845;28;20210;-56
2023/08/27 05:39:27;;;;;;;0.10;0.10;;;;;;;16.27;100.00;98499.22;5093686;28;20677;-56
2023/08/27 05:42:14;;;;;;;0.10;0.10;;;;;;;16.38;100.00;98500.84;5093652;28;20203;-56
2023/08/27 05:45:03;;;;;;;0.00;0.00;;;;;;;16.49;100.00;98500.63;5092488;28;20301;-56
2023/08/27 05:47:49;;;;;;;0.10;0.10;;;;;;;16.49;100.00;98505.97;5092198;28;20262;-56
2023/08/27 05:50:39;;;;;;;0.10;0.10;;;;;;;16.47;100.00;98499.94;5092410;28;20338;-56
2023/08/27 05:53:27;;;;;;;0.10;0.10;;;;;;;16.47;100.00;98502.59;5093466;28;20210;-56
2023/08/27 05:56:14;;;;;;;0.10;0.10;;;;;;;16.47;100.00;98493.75;5092140;28;20230;-56
2023/08/27 05:59:01;;;;;;;0.10;0.10;;;;;;;16.47;100.00;98491.91;5091019;28;20206;-56
2023/08/27 06:01:48;;;;;;;0.10;0.10;;;;;;;16.66;100.00;98492.75;5093299;28;20190;-55
2023/08/27 06:04:35;;;;;;;0.10;0.10;;;;;;;16.74;100.00;98472.31;5092096;28;20214;-56
2023/08/27 06:07:24;;;;;;;0.10;0.10;;;;;;;16.83;100.00;98478.56;5092159;28;20703;-56
2023/08/27 06:10:11;;;;;;;0.10;0.10;;;;;;;16.66;100.00;98466.03;5092116;28;20677;-56
2023/08/27 06:12:57;;;;;;;0.10;0.10;;;;;;;16.70;100.00;98475.47;5091852;28;20675;-56
2023/08/27 06:15:45;;;;;;;0.10;0.10;;;;;;;16.72;100.00;98490.34;5090568;28;20207;-56
2023/08/27 06:18:32;;;;;;;0.10;0.10;;;;;;;16.61;100.00;98477.19;5092065;28;20195;-56
2023/08/27 06:21:19;;;;;;;0.10;0.10;;;;;;;16.69;100.00;98466.56;5091794;28;20195;-55
2023/08/27 06:24:09;;;;;;;0.10;0.10;;;;;;;16.86;100.00;98467.56;5092121;28;20206;-54
2023/08/27 06:26:56;;;;;;;0.10;0.10;;;;;;;16.95;100.00;98458.59;5092986;28;20187;-54
2023/08/27 06:29:44;;;;;;;0.10;0.10;;;;;;;17.20;100.00;98451.59;5090491;28;20317;-54
2023/08/27 06:32:33;;;;;;;0.10;0.10;;;;;;;17.36;100.00;98442.81;5091672;28;20203;-54
2023/08/27 06:35:20;;;;;;;0.10;0.10;;;;;;;17.11;100.00;98450.69;5091792;28;20198;-54
2023/08/27 06:38:07;;;;;;;0.10;0.10;;;;;;;17.21;100.00;98452.44;5092259;28;20300;-55
2023/08/27 06:40:56;;;;;;;0.10;0.10;;;;;;;17.39;100.00;98454.06;5091710;28;20329;-54
2023/08/27 06:43:43;;;;;;;0.10;0.10;;;;;;;17.25;100.00;98453.78;5090448;28;20198;-54
2023/08/27 06:46:38;;;;;;;0.10;0.10;;;;;;;17.41;100.00;98457.41;5091740;28;20316;-54
2023/08/27 06:49:25;;;;;;;0.10;0.10;;;;;;;17.71;100.00;98453.41;5091732;28;20222;-54
2023/08/27 06:52:12;;;;;;;0.10;0.10;;;;;;;17.71;100.00;98453.41;5092279;28;20198;-55
2023/08/27 06:55:00;;;;;;;0.10;0.10;;;;;;;17.94;100.00;98450.97;5092905;28;20214;-54
2023/08/27 06:57:47;;;;;;;0.10;0.10;;;;;;;17.84;100.00;98454.78;5091348;28;20218;-54
2023/08/27 07:00:34;;;;;;;0.10;0.10;;;;;;;17.82;100.00;98467.50;5091537;28;20195;-54
2023/08/27 07:03:22;;;;;;;0.10;0.10;;;;;;;17.63;100.00;98466.72;5091623;28;20194;-55
2023/08/27 07:06:10;;;;;;;0.00;0.00;;;;;;;17.92;100.00;98468.22;5091600;28;20203;-55
2023/08/27 07:08:57;;;;;;;0.10;0.10;;;;;;;18.43;100.00;98466.34;5092464;28;20264;-55
2023/08/27 07:11:44;;;;;;;0.00;0.00;;;;;;;18.97;100.00;98470.28;5091484;28;20545;-55
2023/08/27 07:14:33;;;;;;;0.00;0.00;;;;;;;19.26;100.00;98456.31;5090173;28;20244;-55
2023/08/27 07:17:21;;;;;;;0.10;0.10;;;;;;;19.50;100.00;98441.19;5091270;28;20409;-57
2023/08/27 07:20:09;;;;;;;0.10;0.10;;;;;;;19.31;100.00;98451.31;5091112;28;20191;-56
2023/08/27 07:22:58;;;;;;;0.10;0.10;;;;;;;19.10;100.00;98459.03;5091466;28;20222;-57
2023/08/27 07:25:46;;;;;;;0.00;0.00;;;;;;;19.35;100.00;98452.63;5091051;28;20199;-56
2023/08/27 07:28:33;;;;;;;0.10;0.10;;;;;;;19.22;100.00;98460.38;5090120;28;20195;-57
2023/08/27 07:31:21;;;;;;;0.00;0.00;;;;;;;19.47;100.00;98471.91;5090815;28;20701;-56
2023/08/27 07:34:11;;;;;;;0.10;0.10;;;;;;;19.42;100.00;98474.28;5091222;28;20202;-57
2023/08/27 07:36:58;;;;;;;0.00;0.00;;;;;;;19.10;100.00;98481.34;5091146;28;20605;-57
2023/08/27 07:39:45;;;;;;;0.10;0.10;;;;;;;18.63;100.00;98478.47;5088760;28;20199;-56
2023/08/27 07:42:32;;;;;;;0.00;0.00;;;;;;;18.58;100.00;98487.00;5090977;28;20199;-56
2023/08/27 07:45:20;;;;;;;0.10;0.10;;;;;;;18.75;100.00;98484.38;5091375;28;20683;-56
2023/08/27 07:48:09;;;;;;;0.10;0.10;;;;;;;18.35;100.00;98475.25;5094613;28;20229;-56
2023/08/27 07:50:59;;;;;;;0.10;0.10;;;;;;;18.72;100.00;98480.19;5094646;28;20268;-56
2023/08/27 07:53:46;;;;;;;0.10;0.10;;;;;;;19.03;100.00;98466.94;5095759;28;20194;-54
2023/08/27 07:56:33;;;;;;;0.10;0.10;;;;;;;19.43;100.00;98465.19;5094534;28;20195;-55
2023/08/27 07:59:20;;;;;;;0.10;0.10;;;;;;;19.45;100.00;98464.00;5093316;28;20203;-55
2023/08/27 08:02:09;;;;;;;0.10;0.10;;;;;;;19.72;100.00;98461.97;5094535;28;20374;-54
2023/08/27 08:04:57;;;;;;;0.10;0.10;;;;;;;19.92;100.00;98468.59;5094389;28;20195;-55
2023/08/27 08:07:47;;;;;;;0.10;0.10;;;;;;;19.88;100.00;98480.72;5095182;28;20549;-55
2023/08/27 08:10:34;;;;;;;0.10;0.10;;;;;;;19.69;100.00;98481.97;5095385;28;20280;-55
2023/08/27 08:13:24;;;;;;;0.10;0.10;;;;;;;19.72;100.00;98486.97;5094472;28;20203;-57
2023/08/27 08:16:11;;;;;;;0.10;0.10;;;;;;;19.70;100.00;98485.47;5095227;28;20198;-55
2023/08/27 08:18:57;;;;;;;0.10;0.10;;;;;;;19.78;100.00;98501.56;5095225;28;20194;-55
2023/08/27 08:21:46;;;;;;;0.07;0.07;;;;;;;19.59;100.00;98493.88;5095249;28;20202;-55
2023/08/27 08:24:33;;;;;;;0.10;0.10;;;;;;;20.05;100.00;98478.78;5095191;28;20195;-55
2023/08/27 08:27:20;;;;;;;0.10;0.10;;;;;;;20.42;100.00;98479.94;5094984;28;20214;-55
2023/08/27 08:30:09;;;;;;;0.10;0.10;;;;;;;20.44;100.00;98486.00;5093739;28;20206;-56
2023/08/27 08:32:55;;;;;;;0.10;0.10;;;;;;;20.71;100.00;98481.97;5094399;28;20218;-56
2023/08/27 08:35:43;;;;;;;0.10;0.10;;;;;;;20.21;100.00;98489.47;5094692;28;20285;-56
2023/08/27 08:38:33;;;;;;;0.10;0.10;;;;;;;20.17;100.00;98492.66;5094469;28;20353;-56
2023/08/27 08:41:26;;;;;;;0.10;0.10;;;;;;;20.23;100.00;98489.28;5094812;28;20256;-56
2023/08/27 08:44:23;;;;;;;0.10;0.10;;;;;;;20.16;100.00;98481.06;5093476;28;20195;-55
2023/08/27 08:47:12;;;;;;;0.00;0.00;;;;;;;20.47;100.00;98475.75;5094797;28;20275;-54
2023/08/27 08:50:02;;;;;;;0.10;0.10;;;;;;;21.21;100.00;98467.06;5094589;28;20670;-55
2023/08/27 08:52:50;;;;;;;0.10;0.10;;;;;;;21.22;100.00;98453.41;5094615;28;20283;-57
2023/08/27 08:55:41;;;;;;;0.10;0.10;;;;;;;21.03;100.00;98451.22;5094371;28;20228;-56
2023/08/27 08:58:33;;;;;;;0.10;0.10;;;;;;;21.56;100.00;98452.94;5092883;28;20210;-57
2023/08/27 09:01:21;;;;;;;0.10;0.10;;;;;;;21.64;100.00;98455.53;5094320;28;20241;-56
2023/08/27 09:04:08;;;;;;;0.10;0.10;;;;;;;21.48;100.00;98461.09;5094325;28;20253;-55
2023/08/27 09:06:55;;;;;;;0.10;0.10;;;;;;;21.88;100.00;98461.66;5094187;28;20199;-55
2023/08/27 09:09:43;;;;;;;0.10;0.10;;;;;;;22.28;100.00;98463.84;5094245;28;20728;-55
2023/08/27 09:12:32;;;;;;;0.10;0.10;;;;;;;22.32;100.00;98458.09;5094095;28;20321;-55
2023/08/27 09:15:18;;;;;;;0.10;0.10;;;;;;;22.04;100.00;98469.56;5092941;28;20702;-55
2023/08/27 09:18:05;;;;;;;0.10;0.10;;;;;;;21.69;100.00;98463.88;5093910;28;20210;-55
2023/08/27 09:20:52;;;;;;;0.10;0.10;;;;;;;21.84;100.00;98463.06;5093819;28;20194;-56
2023/08/27 09:23:39;;;;;;;0.10;0.10;;;;;;;21.75;100.00;98469.56;5094021;28;20608;-55
2023/08/27 09:26:26;;;;;;;0.05;0.05;;;;;;;21.80;100.00;98477.94;5093833;28;20205;-55
2023/08/27 09:29:16;;;;;;;0.10;0.10;;;;;;;22.10;100.00;98482.34;5092505;28;20191;-55
2023/08/27 09:32:04;;;;;;;0.10;0.10;;;;;;;22.96;100.00;98479.72;5093705;28;20321;-55
2023/08/27 09:34:58;;;;;;;0.10;0.10;;;;;;;22.77;100.00;98486.59;5093627;28;20207;-56
2023/08/27 09:37:52;;;;;;;0.10;0.10;;;;;;;22.99;100.00;98474.81;5093314;28;20225;-56
2023/08/27 09:40:40;;;;;;;0.10;0.10;;;;;;;23.64;100.00;98462.84;5093585;28;20203;-57
2023/08/27 09:43:28;;;;;;;0.10;0.10;;;;;;;23.24;100.00;98460.84;5092401;28;20214;-56
2023/08/27 09:46:17;;;;;;;0.10;0.10;;;;;;;23.30;100.00;98463.63;5093630;28;20277;-56
2023/08/27 09:49:06;;;;;;;0.10;0.10;;;;;;;23.51;100.00;98446.50;5093544;28;20186;-56
2023/08/27 09:51:57;;;;;;;0.10;0.10;;;;;;;24.03;100.00;98442.44;5093325;28;20313;-57
2023/08/27 09:54:44;;;;;;;0.10;0.10;;;;;;;24.20;100.00;98432.91;5093330;28;20191;-57
2023/08/27 09:57:31;;;;;;;0.00;0.00;;;;;;;24.74;100.00;98423.91;5093229;28;20197;-56
2023/08/27 10:00:19;;;;;;;0.10;0.10;;;;;;;24.11;100.00;98434.13;5091850;28;20194;-56
2023/08/27 10:03:07;;;;;;;0.10;0.10;;;;;;;23.69;100.00;98419.81;5093241;28;20199;-57
2023/08/27 10:05:56;;;;;;;0.00;0.00;;;;;;;23.41;100.00;98411.72;5093390;28;20190;-56
2023/08/27 10:08:48;;;;;;;0.10;0.10;;;;;;;23.80;100.00;98398.63;5092360;28;20229;-56
2023/08/27 10:11:35;;;;;;;0.10;0.10;;;;;;;23.90;100.00;98409.91;5093155;28;20678;-56
2023/08/27 10:14:22;;;;;;;0.00;0.00;;;;;;;24.45;100.00;98411.59;5091756;28;20198;-55
2023/08/27 10:17:11;;;;;;;0.10;0.10;;;;;;;25.19;100.00;98390.78;5093240;28;20186;-57
2023/08/27 10:20:02;;;;;;;0.03;0.03;;;;;;;25.16;98.16;98381.19;5093323;28;20309;-57
2023/08/27 10:22:50;;;;;;;0.00;0.00;;;;;;;25.83;91.55;98371.03;5093048;28;20233;-57
2023/08/27 10:25:38;;;;;;;0.00;0.00;;;;;;;24.46;99.41;98385.34;5092927;28;20321;-56
2023/08/27 10:28:27;;;;;;;0.10;0.10;;;;;;;23.83;100.00;98385.53;5091864;28;20190;-57
2023/08/27 10:31:14;;;;;;;0.10;0.10;;;;;;;24.17;100.00;98375.66;5093052;28;20195;-56
2023/08/27 10:34:01;;;;;;;0.10;0.10;;;;;;;24.14;100.00;98374.22;5092892;28;20191;-56
2023/08/27 10:36:52;;;;;;;0.10;0.10;;;;;;;23.75;100.00;98374.91;5092607;28;20202;-57
2023/08/27 10:39:40;;;;;;;0.10;0.10;;;;;;;23.85;100.00;98385.34;5092430;28;20284;-57
2023/08/27 10:42:31;;;;;;;0.00;0.00;;;;;;;23.28;100.00;98367.56;5092729;28;20187;-56
2023/08/27 10:45:20;;;;;;;0.10;0.10;;;;;;;23.90;100.00;98372.88;5091494;28;20194;-56
2023/08/27 10:48:07;;;;;;;0.10;0.10;;;;;;;23.92;100.00;98378.91;5092607;28;20202;-56
2023/08/27 10:51:09;;;;;;;0.10;0.10;;;;;;;24.25;100.00;98375.50;5092763;28;20265;-56
2023/08/27 10:53:59;;;;;;;0.10;0.10;;;;;;;26.42;92.00;98367.19;5092704;28;20236;-57
2023/08/27 10:56:47;;;;;;;0.03;0.03;;;;;;;28.41;73.04;98363.25;5092309;28;20207;-57
2023/08/27 10:59:42;;;;;;;0.00;0.00;;;;;;;28.22;70.05;98365.19;5091104;28;20336;-57
2023/08/27 11:02:28;;;;;;;0.00;0.00;;;;;;;25.91;77.03;98359.94;5092500;28;20190;-56
2023/08/27 11:05:18;;;;;;;0.10;0.10;;;;;;;25.18;90.75;98354.72;5090401;28;20199;-56
2023/08/27 11:08:14;;;;;;;0.00;0.00;;;;;;;24.02;97.16;98369.56;5091225;28;20198;-56
2023/08/27 11:11:11;;;;;;;0.10;0.10;;;;;;;23.47;100.00;98364.13;5091786;28;20257;-56
2023/08/27 11:14:05;;;;;;;0.10;0.10;;;;;;;23.93;100.00;98368.91;5090285;28;20249;-56
2023/08/27 11:17:07;;;;;;;0.10;0.10;;;;;;;24.02;100.00;98370.41;5091587;28;20674;-56
2023/08/27 11:20:22;;;;;;;0.00;0.00;;;;;;;23.61;100.00;98362.34;5094086;28;20238;-56
2023/08/27 11:23:10;;;;;;;0.03;0.03;;;;;;;23.31;100.00;98361.75;5093357;28;20199;-56
2023/08/27 11:26:00;;;;;;;0.00;0.00;;;;;;;22.76;100.00;98363.41;5095435;28;20207;-56
2023/08/27 11:28:49;;;;;;;0.10;0.10;;;;;;;22.42;100.00;98367.69;5093983;28;20195;-56
2023/08/27 11:31:38;;;;;;;0.10;0.10;;;;;;;22.14;100.00;98350.59;5095425;28;20221;-56
2023/08/27 11:34:25;;;;;;;0.10;0.10;;;;;;;21.99;100.00;98358.69;5094870;28;20683;-56
2023/08/27 11:37:13;;;;;;;0.10;0.10;;;;;;;21.94;100.00;98361.13;5094335;28;20356;-56
2023/08/27 11:40:13;;;;;;;0.08;0.08;;;;;;;21.25;100.00;98371.41;5095019;28;20218;-56
2023/08/27 11:43:00;;;;;;;0.10;0.10;;;;;;;21.21;100.00;98397.88;5095153;28;20269;-56
2023/08/27 11:45:49;;;;;;;0.10;0.10;;;;;;;21.14;100.00;98391.56;5094743;28;20219;-56
2023/08/27 11:48:48;;;;;;;0.10;0.10;;;;;;;20.97;100.00;98390.06;5094843;28;20789;-56
2023/08/27 11:51:35;;;;;;;0.10;0.10;;;;;;;20.51;100.00;98385.56;5094294;28;20190;-56
2023/08/27 11:54:24;;;;;;;0.10;0.10;;;;;;;20.30;100.00;98388.88;5094926;28;20315;-56
2023/08/27 11:57:11;;;;;;;0.00;0.00;;;;;;;20.22;100.00;98380.03;5094798;28;20245;-56
2023/08/27 11:59:58;;;;;;;0.10;0.10;;;;;;;20.04;100.00;98374.09;5093036;28;20234;-56
2023/08/27 12:02:46;;;;;;;0.10;0.10;;;;;;;19.79;100.00;98385.00;5093782;28;20191;-56
2023/08/27 12:05:33;;;;;;;0.10;0.10;;;;;;;19.67;100.00;98397.13;5094417;28;20245;-56
2023/08/27 12:08:20;;;;;;;0.10;0.10;;;;;;;19.55;100.00;98407.41;5094078;28;20194;-56
2023/08/27 12:11:08;;;;;;;0.10;0.10;;;;;;;19.11;100.00;98394.47;5094355;28;20199;-56
2023/08/27 12:13:58;;;;;;;0.00;0.00;;;;;;;19.20;100.00;98407.84;5092770;28;20190;-56
2023/08/27 12:16:45;;;;;;;0.10;0.10;;;;;;;19.11;100.00;98407.88;5094627;28;20690;-56
2023/08/27 12:19:34;;;;;;;0.10;0.10;;;;;;;18.66;100.00;98405.72;5094200;28;20272;-56
2023/08/27 12:22:21;;;;;;;0.10;0.10;;;;;;;18.63;100.00;98416.78;5093656;28;20596;-56
2023/08/27 12:25:09;;;;;;;0.10;0.10;;;;;;;18.55;100.00;98416.78;5094288;28;20236;-55
2023/08/27 12:27:56;;;;;;;0.00;0.00;;;;;;;18.57;100.00;98415.59;5094173;28;20190;-56
2023/08/27 12:30:48;;;;;;;0.10;0.10;;;;;;;18.86;100.00;98417.78;5093289;28;20341;-56
2023/08/27 12:33:39;;;;;;;0.10;0.10;;;;;;;19.06;100.00;98412.06;5094384;28;20199;-56
2023/08/27 12:36:30;;;;;;;0.10;0.10;;;;;;;19.48;100.00;98405.56;5093712;28;20203;-56
2023/08/27 12:39:17;;;;;;;0.10;0.10;;;;;;;19.43;100.00;98398.88;5093068;28;20219;-56
2023/08/27 12:42:07;;;;;;;0.10;0.10;;;;;;;19.38;100.00;98414.66;5094047;28;20199;-55
2023/08/27 12:44:54;;;;;;;0.10;0.10;;;;;;;19.76;100.00;98408.69;5092412;28;20194;-56
2023/08/27 12:47:41;;;;;;;0.10;0.10;;;;;;;21.38;100.00;98396.72;5093738;28;20199;-56
2023/08/27 12:50:30;;;;;;;0.10;0.10;;;;;;;;;;5089901;28;20322;-56
2023/08/27 12:53:18;;;;;;;0.10;0.10;;;;;;;21.50;100.00;98377.38;5073391;28;20203;-56
2023/08/27 12:56:05;;;;;;;0.10;0.10;;;;;;;21.34;100.00;98383.81;5073644;28;20202;-56
2023/08/27 12:58:53;;;;;;;0.10;0.10;;;;;;;21.19;100.00;98383.75;5071703;28;20196;-56
2023/08/27 13:01:41;;;;;;;0.10;0.10;;;;;;;20.95;100.00;98370.56;5073581;28;20242;-56
2023/08/27 13:04:29;;;;;;;0.10;0.10;;;;;;;21.48;100.00;98366.78;5073220;28;20282;-56